createdAt,value
2022-10-17T00:00:11.819Z,16.54
2022-10-17T00:02:38.627Z,16.57
2022-10-17T00:05:05.809Z,16.55
2022-10-17T00:07:32.757Z,16.72
2022-10-17T00:10:00.915Z,16.51
2022-10-17T00:12:27.790Z,16.58
2022-10-17T00:14:54.615Z,16.63
2022-10-17T00:17:21.397Z,16.64
2022-10-17T00:19:48.185Z,16.64
2022-10-17T00:22:15.106Z,16.77
2022-10-17T00:24:41.896Z,16.58
2022-10-17T00:27:10.022Z,16.79
2022-10-17T00:29:36.789Z,16.77
2022-10-17T00:32:03.594Z,16.78
2022-10-17T00:34:31.139Z,16.92
2022-10-17T00:36:57.992Z,16.91
2022-10-17T00:39:24.882Z,16.85
2022-10-17T00:41:51.638Z,16.90
2022-10-17T00:44:59.515Z,16.97
2022-10-17T00:47:26.555Z,16.99
2022-10-17T00:49:53.417Z,17.04
2022-10-17T00:52:25.206Z,17.00
2022-10-17T00:54:56.556Z,17.03
2022-10-17T00:57:23.706Z,17.01
2022-10-17T00:59:52.893Z,16.89
2022-10-17T01:02:22.341Z,16.94
2022-10-17T01:04:51.894Z,17.05
2022-10-17T01:07:18.791Z,16.96
2022-10-17T01:09:47.234Z,16.92
2022-10-17T01:12:21.252Z,17.00
2022-10-17T01:15:02.921Z,17.01
2022-10-17T01:17:38.155Z,17.08
2022-10-17T01:20:53.223Z,17.07
2022-10-17T01:23:37.366Z,17.10
2022-10-17T01:26:12.643Z,17.07
2022-10-17T01:29:04.068Z,17.14
2022-10-17T01:31:39.104Z,17.15
2022-10-17T01:34:12.842Z,17.17
2022-10-17T01:36:44.772Z,17.19
2022-10-17T01:39:17.311Z,17.19
2022-10-17T01:41:49.708Z,17.14
2022-10-17T01:44:22.118Z,17.06
2022-10-17T01:46:54.732Z,17.00
2022-10-17T01:49:26.327Z,16.98
2022-10-17T01:51:57.100Z,17.01
2022-10-17T01:54:27.838Z,16.99
2022-10-17T01:56:59.805Z,17.14
2022-10-17T01:59:34.441Z,17.14
2022-10-17T02:02:03.179Z,17.14
2022-10-17T02:04:30.116Z,17.17
2022-10-17T02:06:56.878Z,17.08
2022-10-17T02:09:25.926Z,17.13
2022-10-17T02:12:08.747Z,17.25
2022-10-17T02:14:45.650Z,17.23
2022-10-17T02:17:26.527Z,17.21
2022-10-17T02:20:03.030Z,17.15
2022-10-17T02:22:39.105Z,17.19
2022-10-17T02:25:14.322Z,17.22
2022-10-17T02:27:48.844Z,17.17
2022-10-17T02:30:23.558Z,17.18
2022-10-17T02:32:58.927Z,17.20
2022-10-17T02:35:29.569Z,17.25
2022-10-17T02:37:58.342Z,17.28
2022-10-17T02:40:27.940Z,17.28
2022-10-17T02:42:55.704Z,17.30
2022-10-17T02:45:26.381Z,17.38
2022-10-17T02:48:00.819Z,17.32
2022-10-17T02:50:37.094Z,17.22
2022-10-17T02:53:09.494Z,17.28
2022-10-17T02:55:40.945Z,17.34
2022-10-17T02:58:12.353Z,17.43
2022-10-17T03:00:40.600Z,17.37
2022-10-17T03:03:21.797Z,17.41
2022-10-17T03:05:48.697Z,17.45
2022-10-17T03:08:15.465Z,17.51
2022-10-17T03:10:42.186Z,17.60
2022-10-17T03:13:08.947Z,17.52
2022-10-17T03:15:36.070Z,17.50
2022-10-17T03:18:02.925Z,17.66
2022-10-17T03:20:31.073Z,17.56
2022-10-17T03:22:57.881Z,17.66
2022-10-17T03:25:24.876Z,17.76
2022-10-17T03:27:51.772Z,17.65
2022-10-17T03:30:18.627Z,17.68
2022-10-17T03:32:45.401Z,17.68
2022-10-17T03:35:15.046Z,17.58
2022-10-17T03:37:43.389Z,17.65
2022-10-17T03:40:11.043Z,17.62
2022-10-17T03:42:37.812Z,17.73
2022-10-17T03:45:05.771Z,17.82
2022-10-17T03:47:32.862Z,17.87
2022-10-17T03:49:59.814Z,17.82
2022-10-17T03:52:26.586Z,17.87
2022-10-17T03:54:54.839Z,17.90
2022-10-17T03:57:21.605Z,17.99
2022-10-17T03:59:50.603Z,17.98
2022-10-17T04:02:17.532Z,18.00
2022-10-17T04:04:44.438Z,17.99
2022-10-17T04:07:11.229Z,17.97
2022-10-17T04:09:38.078Z,17.97
2022-10-17T04:12:06.459Z,17.94
2022-10-17T04:14:33.282Z,17.91
2022-10-17T04:17:00.044Z,17.91
2022-10-17T04:19:26.856Z,17.86
2022-10-17T04:21:53.639Z,17.90
2022-10-17T04:24:20.952Z,17.87
2022-10-17T04:26:50.081Z,17.90
2022-10-17T04:29:18.254Z,17.88
2022-10-17T04:31:45.034Z,17.96
2022-10-17T04:34:14.179Z,17.95
2022-10-17T04:36:41.178Z,18.00
2022-10-17T04:39:08.074Z,17.99
2022-10-17T04:41:34.920Z,18.01
2022-10-17T04:44:01.774Z,18.02
2022-10-17T04:46:30.124Z,17.91
2022-10-17T04:48:57.361Z,17.91
2022-10-17T04:51:26.512Z,17.90
2022-10-17T04:53:53.589Z,18.00
2022-10-17T04:56:22.646Z,17.99
2022-10-17T04:58:50.453Z,17.84
2022-10-17T05:01:19.442Z,17.95
2022-10-17T05:03:48.305Z,17.86
2022-10-17T05:06:17.701Z,17.76
2022-10-17T05:08:45.202Z,17.89
2022-10-17T05:11:19.678Z,17.95
2022-10-17T05:13:50.690Z,17.89
2022-10-17T05:16:17.522Z,17.93
2022-10-17T05:18:44.349Z,17.93
2022-10-17T05:21:12.538Z,17.94
2022-10-17T05:23:39.328Z,17.91
2022-10-17T05:26:06.189Z,17.91
2022-10-17T05:28:33.968Z,17.95
2022-10-17T05:31:03.451Z,17.98
2022-10-17T05:33:30.457Z,18.04
2022-10-17T05:35:57.399Z,18.09
2022-10-17T05:38:26.217Z,18.11
2022-10-17T05:40:57.733Z,18.16
2022-10-17T05:43:24.755Z,18.08
2022-10-17T05:45:54.486Z,18.08
2022-10-17T05:48:21.917Z,18.12
2022-10-17T05:50:48.884Z,18.15
2022-10-17T05:53:16.141Z,18.16
2022-10-17T05:55:44.389Z,18.12
2022-10-17T05:58:17.720Z,18.22
2022-10-17T06:00:49.566Z,18.12
2022-10-17T06:03:16.441Z,18.01
2022-10-17T06:05:43.331Z,18.02
2022-10-17T06:08:10.050Z,18.08
2022-10-17T06:10:36.857Z,18.22
2022-10-17T06:13:05.173Z,18.14
2022-10-17T06:15:32.017Z,18.07
2022-10-17T06:17:58.836Z,17.90
2022-10-17T06:20:25.687Z,17.97
2022-10-17T06:22:52.475Z,18.03
2022-10-17T06:25:19.417Z,18.25
2022-10-17T06:27:46.421Z,18.24
2022-10-17T06:30:14.586Z,18.30
2022-10-17T06:32:41.981Z,18.31
2022-10-17T06:35:09.051Z,18.33
2022-10-17T06:37:37.130Z,18.36
2022-10-17T06:40:05.160Z,18.42
2022-10-17T06:42:32.086Z,18.45
2022-10-17T06:44:58.884Z,18.39
2022-10-17T06:47:27.286Z,18.34
2022-10-17T06:49:54.229Z,18.35
2022-10-17T06:52:21.279Z,18.33
2022-10-17T06:54:48.057Z,18.37
2022-10-17T06:57:17.485Z,18.30
2022-10-17T06:59:44.229Z,18.28
2022-10-17T07:02:11.888Z,18.32
2022-10-17T07:04:40.502Z,18.33
2022-10-17T07:07:07.307Z,18.31
2022-10-17T07:09:34.540Z,18.33
2022-10-17T07:12:01.487Z,18.33
2022-10-17T07:14:32.112Z,18.16
2022-10-17T07:16:59.475Z,18.24
2022-10-17T07:19:27.177Z,18.39
2022-10-17T07:21:55.690Z,18.36
2022-10-17T07:24:22.497Z,18.41
2022-10-17T07:26:49.431Z,18.41
2022-10-17T07:29:16.445Z,18.50
2022-10-17T07:31:45.610Z,18.52
2022-10-17T07:34:12.642Z,18.51
2022-10-17T07:36:39.640Z,18.44
2022-10-17T07:39:07.882Z,18.40
2022-10-17T07:41:34.741Z,18.48
2022-10-17T07:44:01.601Z,18.53
2022-10-17T07:46:28.408Z,18.55
2022-10-17T07:48:55.336Z,18.58
2022-10-17T07:51:22.241Z,18.56
2022-10-17T07:53:52.425Z,18.34
2022-10-17T07:56:24.618Z,18.51
2022-10-17T07:58:52.337Z,18.52
2022-10-17T08:01:19.275Z,18.58
2022-10-17T08:03:48.653Z,18.54
2022-10-17T08:06:16.352Z,18.63
2022-10-17T08:08:43.717Z,18.56
2022-10-17T08:11:13.404Z,18.64
2022-10-17T08:13:42.344Z,18.75
2022-10-17T08:16:11.788Z,18.89
2022-10-17T08:18:40.052Z,18.81
2022-10-17T08:21:11.270Z,18.91
2022-10-17T08:23:38.083Z,18.78
2022-10-17T08:26:08.187Z,18.76
2022-10-17T08:28:35.725Z,18.78
2022-10-17T08:31:05.190Z,18.78
2022-10-17T08:33:33.361Z,18.83
2022-10-17T08:36:00.402Z,18.84
2022-10-17T08:38:29.403Z,18.91
2022-10-17T08:41:01.462Z,18.84
2022-10-17T08:43:45.005Z,18.78
2022-10-17T08:48:48.066Z,18.95
2022-10-17T08:51:20.097Z,18.95
2022-10-17T08:53:53.909Z,18.91
2022-10-17T08:56:25.159Z,18.78
2022-10-17T08:59:12.526Z,18.83
2022-10-17T09:01:48.464Z,18.84
2022-10-17T09:04:47.912Z,18.83
2022-10-17T09:07:21.661Z,18.84
2022-10-17T09:09:53.565Z,18.94
2022-10-17T09:12:25.374Z,18.91
2022-10-17T09:15:12.499Z,18.98
2022-10-17T09:17:52.555Z,18.92
2022-10-17T09:20:22.598Z,18.97
2022-10-17T09:25:28.914Z,18.99
2022-10-17T09:28:04.443Z,18.99
2022-10-17T09:30:45.589Z,18.91
2022-10-17T09:33:28.293Z,19.05
2022-10-17T09:36:04.477Z,18.91
2022-10-17T09:38:39.204Z,18.92
2022-10-17T09:41:39.186Z,18.95
2022-10-17T09:44:13.755Z,19.02
2022-10-17T09:46:41.249Z,18.83
2022-10-17T09:49:17.573Z,18.86
2022-10-17T09:51:44.500Z,18.87
2022-10-17T09:54:20.872Z,18.82
2022-10-17T09:56:58.688Z,19.13
2022-10-17T09:59:33.705Z,19.25
2022-10-17T10:02:09.152Z,19.42
2022-10-17T10:04:59.786Z,19.63
2022-10-17T10:07:29.266Z,19.71
2022-10-17T10:09:57.238Z,19.64
2022-10-17T10:12:26.772Z,19.62
2022-10-17T10:14:55.395Z,19.77
2022-10-17T10:17:35.468Z,19.85
2022-10-17T10:20:23.967Z,19.95
2022-10-17T10:23:06.148Z,19.96
2022-10-17T10:25:33.603Z,19.94
2022-10-17T10:28:01.552Z,20.01
2022-10-17T10:30:31.433Z,19.93
2022-10-17T10:33:00.929Z,20.19
2022-10-17T10:35:33.580Z,20.26
2022-10-17T10:38:03.045Z,20.08
2022-10-17T10:40:33.425Z,20.00
2022-10-17T10:43:05.447Z,20.03
2022-10-17T10:45:48.153Z,20.05
2022-10-17T10:48:23.794Z,19.96
2022-10-17T10:50:56.301Z,20.06
2022-10-17T10:53:35.947Z,20.30
2022-10-17T10:56:10.896Z,20.18
2022-10-17T10:58:46.860Z,20.39
2022-10-17T11:01:22.287Z,20.65
2022-10-17T11:04:00.259Z,20.75
2022-10-17T11:06:34.361Z,20.67
2022-10-17T11:09:13.048Z,20.61
2022-10-17T11:11:44.570Z,20.55
2022-10-17T11:14:18.703Z,20.79
2022-10-17T11:16:51.898Z,20.81
2022-10-17T11:19:25.416Z,20.85
2022-10-17T11:22:05.468Z,20.87
2022-10-17T11:24:38.241Z,20.69
2022-10-17T11:27:07.025Z,20.84
2022-10-17T11:29:36.784Z,20.75
2022-10-17T11:32:08.492Z,20.80
2022-10-17T11:34:40.913Z,20.72
2022-10-17T11:37:16.549Z,20.71
2022-10-17T11:39:49.544Z,20.87
2022-10-17T11:42:21.797Z,20.74
2022-10-17T11:44:52.360Z,20.79
2022-10-17T11:47:31.638Z,20.71
2022-10-17T11:52:57.296Z,20.61
2022-10-17T11:55:26.183Z,20.70
2022-10-17T11:58:17.696Z,20.74
2022-10-17T12:00:55.251Z,20.67
2022-10-17T12:03:41.325Z,20.73
2022-10-17T12:06:17.197Z,20.81
2022-10-17T12:08:53.065Z,20.80
2022-10-17T12:11:34.628Z,20.76
2022-10-17T12:14:05.854Z,20.68
2022-10-17T12:16:47.853Z,20.59
2022-10-17T12:19:35.230Z,20.79
2022-10-17T12:22:19.772Z,20.87
2022-10-17T12:24:56.077Z,20.84
2022-10-17T12:27:36.333Z,20.97
2022-10-17T12:30:07.605Z,21.03
2022-10-17T12:32:53.358Z,20.95
2022-10-17T12:35:23.845Z,20.89
2022-10-17T12:38:15.187Z,20.82
2022-10-17T12:40:55.354Z,20.99
2022-10-17T12:43:47.095Z,21.22
2022-10-17T12:46:54.861Z,21.31
2022-10-17T12:49:38.262Z,21.51
2022-10-17T12:52:22.021Z,21.56
2022-10-17T12:55:07.272Z,21.58
2022-10-17T12:57:44.883Z,21.65
2022-10-17T13:00:19.997Z,21.57
2022-10-17T13:02:49.026Z,21.59
2022-10-17T13:05:22.294Z,21.54
2022-10-17T13:07:50.143Z,21.75
2022-10-17T13:10:21.598Z,21.53
2022-10-17T13:12:51.309Z,21.66
2022-10-17T13:15:20.121Z,21.75
2022-10-17T13:17:56.240Z,21.71
2022-10-17T13:20:30.598Z,21.72
2022-10-17T13:22:59.323Z,21.69
2022-10-17T13:25:27.601Z,21.77
2022-10-17T13:28:11.966Z,21.85
2022-10-17T13:30:38.759Z,21.71
2022-10-17T13:33:27.874Z,21.58
2022-10-17T13:36:00.422Z,21.72
2022-10-17T13:38:30.312Z,21.68
2022-10-17T13:41:05.909Z,21.68
2022-10-17T13:43:45.104Z,21.52
2022-10-17T13:46:36.650Z,21.45
2022-10-17T13:49:11.809Z,21.54
2022-10-17T13:51:44.336Z,21.37
2022-10-17T13:54:18.699Z,21.26
2022-10-17T13:56:56.534Z,21.56
2022-10-17T13:59:28.459Z,21.39
2022-10-17T14:01:56.022Z,21.38
2022-10-17T14:04:22.803Z,21.45
2022-10-17T14:06:52.147Z,21.70
2022-10-17T14:09:22.723Z,21.75
2022-10-17T14:12:00.076Z,21.62
2022-10-17T14:14:30.423Z,21.62
2022-10-17T14:17:01.368Z,21.51
2022-10-17T14:19:33.201Z,21.36
2022-10-17T14:22:17.515Z,21.48
2022-10-17T14:24:44.638Z,21.49
2022-10-17T14:27:26.377Z,21.52
2022-10-17T14:29:58.483Z,21.51
2022-10-17T14:32:25.477Z,21.43
2022-10-17T14:34:58.347Z,21.43
2022-10-17T14:37:43.790Z,21.44
2022-10-17T14:40:16.713Z,21.33
2022-10-17T14:42:44.775Z,21.32
2022-10-17T14:45:23.492Z,21.26
2022-10-17T14:47:51.644Z,21.29
2022-10-17T14:50:24.876Z,21.26
2022-10-17T14:53:03.792Z,21.21
2022-10-17T14:55:33.250Z,20.99
2022-10-17T14:58:00.149Z,20.97
2022-10-17T15:00:28.554Z,20.98
2022-10-17T15:02:56.217Z,21.04
2022-10-17T15:05:23.643Z,21.03
2022-10-17T15:07:50.671Z,21.04
2022-10-17T15:10:25.866Z,20.93
2022-10-17T15:12:59.271Z,20.92
2022-10-17T15:15:33.239Z,20.86
2022-10-17T15:18:00.569Z,20.82
2022-10-17T15:20:29.506Z,20.85
2022-10-17T15:22:57.597Z,20.81
2022-10-17T15:25:25.070Z,20.75
2022-10-17T15:27:52.277Z,20.74
2022-10-17T15:30:22.772Z,20.62
2022-10-17T15:32:51.572Z,20.58
2022-10-17T15:35:19.094Z,20.50
2022-10-17T15:37:49.092Z,20.46
2022-10-17T15:40:18.777Z,20.46
2022-10-17T15:42:45.586Z,20.44
2022-10-17T15:45:16.063Z,20.43
2022-10-17T15:47:49.448Z,20.40
2022-10-17T15:50:18.452Z,20.35
2022-10-17T15:52:47.080Z,20.29
2022-10-17T15:55:13.961Z,20.26
2022-10-17T15:57:44.093Z,20.28
2022-10-17T16:00:16.810Z,20.19
2022-10-17T16:02:43.971Z,20.10
2022-10-17T16:05:14.962Z,20.01
2022-10-17T16:07:43.471Z,19.93
2022-10-17T16:10:10.299Z,19.85
2022-10-17T16:12:41.264Z,19.91
2022-10-17T16:15:13.220Z,19.90
2022-10-17T16:17:40.301Z,19.89
2022-10-17T16:20:08.164Z,19.82
2022-10-17T16:22:38.134Z,19.78
2022-10-17T16:25:10.162Z,19.64
2022-10-17T16:27:38.067Z,19.57
2022-10-17T16:30:07.058Z,19.54
2022-10-17T16:32:34.197Z,19.50
2022-10-17T16:35:01.566Z,19.49
2022-10-17T16:37:28.365Z,19.42
2022-10-17T16:39:55.169Z,19.33
2022-10-17T16:42:24.951Z,19.27
2022-10-17T16:44:51.899Z,19.16
2022-10-17T16:47:19.708Z,19.11
2022-10-17T16:49:46.556Z,18.94
2022-10-17T16:52:17.078Z,18.92
2022-10-17T16:54:46.622Z,18.96
2022-10-17T16:57:13.568Z,19.02
2022-10-17T16:59:41.948Z,19.04
2022-10-17T17:02:10.392Z,18.97
2022-10-17T17:04:37.307Z,18.96
2022-10-17T17:07:04.247Z,18.94
2022-10-17T17:09:31.023Z,18.92
2022-10-17T17:11:57.767Z,18.84
2022-10-17T17:14:24.649Z,18.79
2022-10-17T17:16:53.028Z,18.72
2022-10-17T17:19:20.508Z,18.81
2022-10-17T17:21:51.059Z,18.77
2022-10-17T17:24:21.021Z,18.74
2022-10-17T17:26:51.468Z,18.71
2022-10-17T17:29:18.200Z,18.73
2022-10-17T17:31:45.006Z,18.72
2022-10-17T17:34:17.172Z,18.78
2022-10-17T17:36:45.230Z,18.77
2022-10-17T17:39:14.612Z,18.72
2022-10-17T17:41:42.493Z,18.72
2022-10-17T17:44:15.585Z,18.73
2022-10-17T17:46:43.935Z,18.70
2022-10-17T17:49:11.694Z,18.73
2022-10-17T17:51:41.616Z,18.69
2022-10-17T17:54:11.498Z,18.71
2022-10-17T17:56:39.136Z,18.71
2022-10-17T17:59:06.025Z,18.64
2022-10-17T18:01:39.035Z,18.60
2022-10-17T18:04:08.734Z,18.57
2022-10-17T18:06:36.586Z,18.61
2022-10-17T18:09:06.545Z,18.59
2022-10-17T18:11:33.794Z,18.56
2022-10-17T18:14:01.925Z,18.57
2022-10-17T18:16:30.137Z,18.51
2022-10-17T18:19:00.318Z,18.45
2022-10-17T18:21:29.358Z,18.46
2022-10-17T18:23:56.220Z,18.42
2022-10-17T18:26:24.536Z,18.41
2022-10-17T18:28:51.448Z,18.41
2022-10-17T18:31:24.006Z,18.33
2022-10-17T18:33:52.138Z,18.29
2022-10-17T18:36:19.726Z,18.28
2022-10-17T18:38:46.537Z,18.24
2022-10-17T18:41:15.500Z,18.18
2022-10-17T18:43:45.415Z,18.11
2022-10-17T18:46:15.506Z,18.13
2022-10-17T18:48:44.502Z,18.13
2022-10-17T18:51:12.156Z,18.15
2022-10-17T18:53:39.897Z,18.08
2022-10-17T18:56:06.985Z,18.06
2022-10-17T18:58:33.741Z,18.04
2022-10-17T19:01:04.156Z,17.98
2022-10-17T19:03:31.375Z,17.96
2022-10-17T19:06:01.286Z,17.90
2022-10-17T19:08:28.112Z,17.85
2022-10-17T19:10:54.836Z,17.86
2022-10-17T19:13:21.826Z,17.76
2022-10-17T19:15:48.699Z,17.77
2022-10-17T19:18:17.015Z,17.73
2022-10-17T19:20:43.861Z,17.83
2022-10-17T19:23:10.571Z,17.77
2022-10-17T19:25:37.328Z,17.77
2022-10-17T19:28:04.337Z,17.71
2022-10-17T19:30:31.141Z,17.66
2022-10-17T19:32:57.886Z,17.65
2022-10-17T19:35:26.128Z,17.59
2022-10-17T19:37:52.914Z,17.60
2022-10-17T19:40:19.721Z,17.57
2022-10-17T19:42:46.483Z,17.57
2022-10-17T19:45:13.219Z,17.56
2022-10-17T19:47:40.050Z,17.52
2022-10-17T19:50:07.920Z,17.51
2022-10-17T19:52:36.119Z,17.52
2022-10-17T19:55:02.995Z,17.48
2022-10-17T19:57:29.787Z,17.43
2022-10-17T19:59:56.933Z,17.45
2022-10-17T20:02:23.702Z,17.39
2022-10-17T20:04:59.983Z,17.35
2022-10-17T20:07:39.408Z,17.36
2022-10-17T20:10:07.133Z,17.36
2022-10-17T20:12:34.030Z,17.35
2022-10-17T20:15:00.740Z,17.37
2022-10-17T20:17:27.666Z,17.39
2022-10-17T20:19:54.440Z,17.42
2022-10-17T20:22:21.261Z,17.41
2022-10-17T20:24:49.946Z,17.40
2022-10-17T20:27:16.733Z,17.37
2022-10-17T20:29:43.775Z,17.36
2022-10-17T20:32:10.544Z,17.37
2022-10-17T20:34:37.382Z,17.38
2022-10-17T20:37:04.427Z,17.41
2022-10-17T20:39:31.268Z,17.36
2022-10-17T20:41:59.415Z,17.38
2022-10-17T20:44:26.194Z,17.41
2022-10-17T20:47:01.718Z,17.38
2022-10-17T20:49:30.478Z,17.39
2022-10-17T20:51:57.563Z,17.40
2022-10-17T20:54:24.624Z,17.27
2022-10-17T20:56:51.878Z,17.34
2022-10-17T20:59:20.619Z,17.34
2022-10-17T21:01:48.166Z,17.34
2022-10-17T21:04:44.668Z,17.39
2022-10-17T21:07:01.950Z,17.41
2022-10-17T21:09:28.752Z,17.43
2022-10-17T21:11:55.711Z,17.36
2022-10-17T21:14:25.337Z,17.37
2022-10-17T21:16:54.705Z,17.39
2022-10-17T21:19:21.909Z,17.35
2022-10-17T21:21:48.957Z,17.37
2022-10-17T21:24:18.158Z,17.41
2022-10-17T21:26:46.534Z,17.39
2022-10-17T21:29:14.337Z,17.38
2022-10-17T21:31:44.097Z,17.36
2022-10-17T21:34:13.283Z,17.36
2022-10-17T21:36:40.214Z,17.39
2022-10-17T21:41:34.723Z,17.34
2022-10-17T21:44:04.298Z,17.29
2022-10-17T21:46:31.878Z,17.27
2022-10-17T21:49:00.704Z,17.18
2022-10-17T21:51:27.700Z,17.14
2022-10-17T21:53:56.496Z,17.13
2022-10-17T21:56:30.742Z,17.12
2022-10-17T21:58:58.282Z,17.10
2022-10-17T22:01:27.696Z,17.15
2022-10-17T22:03:56.354Z,17.16
2022-10-17T22:06:39.622Z,17.14
2022-10-17T22:09:09.137Z,17.10
2022-10-17T22:11:36.099Z,17.04
2022-10-17T22:14:05.239Z,17.08
2022-10-17T22:16:32.743Z,17.10
2022-10-17T22:19:04.853Z,17.14
2022-10-17T22:21:35.734Z,17.20
2022-10-17T22:24:05.782Z,17.21
2022-10-17T22:26:34.221Z,17.23
2022-10-17T22:29:02.269Z,17.21
2022-10-17T22:31:29.103Z,17.24
2022-10-17T22:33:56.196Z,17.22
2022-10-17T22:36:23.067Z,17.27
2022-10-17T22:38:51.461Z,17.20
2022-10-17T22:41:18.310Z,17.14
2022-10-17T22:43:45.134Z,17.08
2022-10-17T22:46:14.222Z,17.03
2022-10-17T22:48:41.123Z,17.00
2022-10-17T22:51:08.491Z,16.99
2022-10-17T22:53:37.318Z,17.00
2022-10-17T22:56:08.044Z,16.92
2022-10-17T22:58:36.093Z,16.91
2022-10-17T23:01:03.914Z,17.00
2022-10-17T23:03:32.233Z,16.95
2022-10-17T23:05:59.346Z,16.99
2022-10-17T23:08:27.034Z,16.96
2022-10-17T23:10:54.058Z,16.88
2022-10-17T23:13:22.345Z,16.80
2022-10-17T23:15:51.713Z,16.76
2022-10-17T23:18:18.834Z,16.72
2022-10-17T23:20:46.002Z,16.73
2022-10-17T23:23:13.093Z,16.69
2022-10-17T23:25:40.537Z,16.66
2022-10-17T23:28:08.745Z,16.62
2022-10-17T23:30:37.482Z,16.60
2022-10-17T23:33:04.942Z,16.54
2022-10-17T23:35:31.848Z,16.50
2022-10-17T23:37:58.686Z,16.43
2022-10-17T23:40:25.516Z,16.42
2022-10-17T23:42:52.275Z,16.38
2022-10-17T23:45:19.173Z,16.35
2022-10-17T23:47:47.408Z,16.37
2022-10-17T23:50:14.183Z,16.37
2022-10-17T23:52:40.922Z,16.40
2022-10-17T23:55:09.343Z,16.36
2022-10-17T23:57:36.122Z,16.36
